createdAt,value
2023-02-14T00:01:41.550Z,-0.85
2023-02-14T00:04:09.930Z,-0.85
2023-02-14T00:06:39.081Z,-0.85
2023-02-14T00:09:11.468Z,-0.83
2023-02-14T00:11:40.216Z,-0.83
2023-02-14T00:14:27.214Z,-0.82
2023-02-14T00:16:55.867Z,-0.81
2023-02-14T00:19:24.536Z,-0.80
2023-02-14T00:21:52.902Z,-0.79
2023-02-14T00:24:24.430Z,-0.78
2023-02-14T00:26:53.579Z,-0.76
2023-02-14T00:29:25.636Z,-0.74
2023-02-14T00:31:53.888Z,-0.73
2023-02-14T00:34:22.676Z,-0.73
2023-02-14T00:36:51.223Z,-0.71
2023-02-14T00:39:19.855Z,-0.71
2023-02-14T00:41:48.089Z,-0.69
2023-02-14T00:44:18.372Z,-0.68
2023-02-14T00:46:46.751Z,-0.69
2023-02-14T00:49:14.954Z,-0.68
2023-02-14T00:51:43.134Z,-0.68
2023-02-14T00:54:11.589Z,-0.68
2023-02-14T00:56:39.701Z,-0.68
2023-02-14T00:59:10.549Z,-0.68
2023-02-14T01:01:39.369Z,-0.68
2023-02-14T01:04:08.013Z,-0.67
2023-02-14T01:06:36.346Z,-0.66
2023-02-14T01:09:04.984Z,-0.66
2023-02-14T01:11:34.734Z,-0.65
2023-02-14T01:14:03.123Z,-0.64
2023-02-14T01:16:31.695Z,-0.64
2023-02-14T01:19:01.265Z,-0.64
2023-02-14T01:21:33.123Z,-0.64
2023-02-14T01:24:04.351Z,-0.64
2023-02-14T01:26:33.435Z,-0.64
2023-02-14T01:29:04.779Z,-0.64
2023-02-14T01:31:34.860Z,-0.64
2023-02-14T01:34:03.717Z,-0.65
2023-02-14T01:36:38.801Z,-0.65
2023-02-14T01:39:12.673Z,-0.67
2023-02-14T01:41:43.573Z,-0.68
2023-02-14T01:44:14.871Z,-0.69
2023-02-14T01:46:45.203Z,-0.70
2023-02-14T01:49:21.703Z,-0.74
2023-02-14T01:52:06.866Z,-0.72
2023-02-14T01:54:40.444Z,-0.72
2023-02-14T01:57:12.661Z,-0.72
2023-02-14T01:59:49.750Z,-0.73
2023-02-14T02:02:23.719Z,-0.72
2023-02-14T02:04:56.077Z,-0.72
2023-02-14T02:07:29.734Z,-0.70
2023-02-14T02:10:03.172Z,-0.68
2023-02-14T02:12:32.865Z,-0.67
2023-02-14T02:15:03.607Z,-0.65
2023-02-14T02:17:46.812Z,-0.63
2023-02-14T02:20:18.337Z,-0.61
2023-02-14T02:23:12.530Z,-0.59
2023-02-14T02:26:37.628Z,-0.58
2023-02-14T02:29:21.493Z,-0.56
2023-02-14T02:31:59.745Z,-0.55
2023-02-14T02:34:55.476Z,-0.55
2023-02-14T02:38:11.554Z,-0.54
2023-02-14T02:40:51.889Z,-0.54
2023-02-14T02:43:45.471Z,-0.53
2023-02-14T02:46:44.466Z,-0.52
2023-02-14T02:49:45.220Z,-0.51
2023-02-14T02:52:57.938Z,-0.49
2023-02-14T02:55:55.280Z,-0.47
2023-02-14T02:58:27.048Z,-0.45
2023-02-14T03:00:57.425Z,-0.42
2023-02-14T03:03:47.082Z,-0.41
2023-02-14T03:06:15.287Z,-0.38
2023-02-14T03:08:43.399Z,-0.35
2023-02-14T03:11:13.446Z,-0.33
2023-02-14T03:13:54.771Z,-0.30
2023-02-14T03:16:35.826Z,-0.28
2023-02-14T03:19:21.924Z,-0.25
2023-02-14T03:22:05.331Z,-0.22
2023-02-14T03:24:45.008Z,-0.18
2023-02-14T03:27:25.917Z,-0.14
2023-02-14T03:30:17.538Z,-0.11
2023-02-14T03:32:57.752Z,-0.08
2023-02-14T03:35:44.259Z,-0.05
2023-02-14T03:38:38.259Z,-0.01
2023-02-14T03:41:12.873Z,0.03
2023-02-14T03:43:48.918Z,0.06
2023-02-14T03:46:28.815Z,0.09
2023-02-14T03:49:01.990Z,0.11
2023-02-14T03:51:34.409Z,0.14
2023-02-14T03:54:06.928Z,0.17
2023-02-14T03:56:40.625Z,0.19
2023-02-14T03:59:22.067Z,0.22
2023-02-14T04:02:20.141Z,0.24
2023-02-14T04:04:50.980Z,0.27
2023-02-14T04:07:21.791Z,0.30
2023-02-14T04:09:50.749Z,0.33
2023-02-14T04:12:32.402Z,0.34
2023-02-14T04:15:06.362Z,0.36
2023-02-14T04:17:53.448Z,0.38
2023-02-14T04:20:22.123Z,0.39
2023-02-14T04:22:51.835Z,0.41
2023-02-14T04:25:21.975Z,0.44
2023-02-14T04:27:50.222Z,0.49
2023-02-14T04:30:20.966Z,0.52
2023-02-14T04:32:50.235Z,0.56
2023-02-14T04:35:18.480Z,0.59
2023-02-14T04:37:46.809Z,0.62
2023-02-14T04:40:17.412Z,0.63
2023-02-14T04:42:46.249Z,0.64
2023-02-14T04:45:15.021Z,0.65
2023-02-14T04:47:43.184Z,0.66
2023-02-14T04:50:11.618Z,0.65
2023-02-14T04:52:40.690Z,0.65
2023-02-14T04:55:09.791Z,0.66
2023-02-14T04:57:37.957Z,0.66
2023-02-14T05:00:07.214Z,0.66
2023-02-14T05:02:35.529Z,0.66
2023-02-14T05:05:03.867Z,0.67
2023-02-14T05:07:32.101Z,0.68
2023-02-14T05:10:00.379Z,0.68
2023-02-14T05:12:28.543Z,0.68
2023-02-14T05:14:57.966Z,0.69
2023-02-14T05:17:26.205Z,0.72
2023-02-14T05:19:54.306Z,0.76
2023-02-14T05:22:22.562Z,0.81
2023-02-14T05:24:50.746Z,0.87
2023-02-14T05:27:18.869Z,0.92
2023-02-14T05:29:47.038Z,0.97
2023-02-14T05:32:15.429Z,1.02
2023-02-14T05:34:43.922Z,1.08
2023-02-14T05:37:12.112Z,1.12
2023-02-14T05:39:40.221Z,1.16
2023-02-14T05:44:35.671Z,1.22
2023-02-14T05:47:04.189Z,1.24
2023-02-14T05:49:32.443Z,1.27
2023-02-14T05:52:00.693Z,1.30
2023-02-14T05:54:28.951Z,1.33
2023-02-14T05:56:57.644Z,1.36
2023-02-14T05:59:28.759Z,1.36
2023-02-14T06:02:04.385Z,1.39
2023-02-14T06:04:32.782Z,1.41
2023-02-14T06:07:01.140Z,1.43
2023-02-14T06:09:29.346Z,1.44
2023-02-14T06:11:59.067Z,1.45
2023-02-14T06:14:27.702Z,1.46
2023-02-14T06:16:55.873Z,1.47
2023-02-14T06:19:24.094Z,1.51
2023-02-14T06:21:52.238Z,1.54
2023-02-14T06:24:20.542Z,1.57
2023-02-14T06:26:48.748Z,1.62
2023-02-14T06:29:17.689Z,1.65
2023-02-14T06:31:46.135Z,1.68
2023-02-14T06:34:16.993Z,1.71
2023-02-14T06:36:45.400Z,1.73
2023-02-14T06:39:13.712Z,1.75
2023-02-14T06:41:41.930Z,1.75
2023-02-14T06:44:10.645Z,1.74
2023-02-14T06:46:38.867Z,1.77
2023-02-14T06:49:07.669Z,1.78
2023-02-14T06:51:37.148Z,1.78
2023-02-14T06:54:08.606Z,1.78
2023-02-14T06:56:36.810Z,1.78
2023-02-14T06:59:05.929Z,1.78
2023-02-14T07:01:34.480Z,1.78
2023-02-14T07:04:02.672Z,1.79
2023-02-14T07:06:31.533Z,1.80
2023-02-14T07:09:07.400Z,1.82
2023-02-14T07:11:35.678Z,1.83
2023-02-14T07:14:04.061Z,1.83
2023-02-14T07:16:32.329Z,1.84
2023-02-14T07:19:00.425Z,1.84
2023-02-14T07:21:28.707Z,1.85
2023-02-14T07:23:57.041Z,1.86
2023-02-14T07:26:25.435Z,1.88
2023-02-14T07:28:53.841Z,1.88
2023-02-14T07:31:23.639Z,1.88
2023-02-14T07:33:53.157Z,1.89
2023-02-14T07:36:21.314Z,1.90
2023-02-14T07:38:49.538Z,1.92
2023-02-14T07:41:17.793Z,1.94
2023-02-14T07:43:45.941Z,1.96
2023-02-14T07:46:14.302Z,1.99
2023-02-14T07:48:42.543Z,2.01
2023-02-14T07:51:11.372Z,2.03
2023-02-14T07:53:39.667Z,2.04
2023-02-14T07:56:07.899Z,2.07
2023-02-14T07:58:36.263Z,2.10
2023-02-14T08:01:04.717Z,2.14
2023-02-14T08:03:33.058Z,2.17
2023-02-14T08:06:01.890Z,2.20
2023-02-14T08:08:32.373Z,2.23
2023-02-14T08:11:01.044Z,2.27
2023-02-14T08:13:29.656Z,2.30
2023-02-14T08:16:12.328Z,2.33
2023-02-14T08:18:42.262Z,2.38
2023-02-14T08:21:11.348Z,2.41
2023-02-14T08:23:39.645Z,2.45
2023-02-14T08:26:08.039Z,2.48
2023-02-14T08:28:36.673Z,2.53
2023-02-14T08:31:05.303Z,2.56
2023-02-14T08:33:33.564Z,2.61
2023-02-14T08:36:02.796Z,2.64
2023-02-14T08:38:30.999Z,2.68
2023-02-14T08:41:05.242Z,2.73
2023-02-14T08:43:38.263Z,2.78
2023-02-14T08:46:06.680Z,2.83
2023-02-14T08:48:39.098Z,2.89
2023-02-14T08:51:08.918Z,2.92
2023-02-14T08:53:37.120Z,2.95
2023-02-14T08:56:07.792Z,2.98
2023-02-14T08:58:38.900Z,3.01
2023-02-14T09:01:15.500Z,3.06
2023-02-14T09:03:44.973Z,3.11
2023-02-14T09:06:17.614Z,3.17
2023-02-14T09:08:47.001Z,3.24
2023-02-14T09:11:22.439Z,3.29
2023-02-14T09:13:58.053Z,3.36
2023-02-14T09:16:26.808Z,3.43
2023-02-14T09:18:56.626Z,3.50
2023-02-14T09:21:27.043Z,3.55
2023-02-14T09:23:55.315Z,3.60
2023-02-14T09:26:23.710Z,3.64
2023-02-14T09:28:52.080Z,3.72
2023-02-14T09:31:22.918Z,3.81
2023-02-14T09:33:52.280Z,3.86
2023-02-14T09:36:39.182Z,3.89
2023-02-14T09:39:07.385Z,3.90
2023-02-14T09:42:00.052Z,3.92
2023-02-14T09:44:44.893Z,3.93
2023-02-14T09:47:34.268Z,3.90
2023-02-14T09:50:14.036Z,3.90
2023-02-14T09:52:51.702Z,3.90
2023-02-14T09:55:20.161Z,3.89
2023-02-14T09:57:57.681Z,3.90
2023-02-14T10:00:34.211Z,3.93
2023-02-14T10:03:28.314Z,3.97
2023-02-14T10:06:02.102Z,4.00
2023-02-14T10:09:05.838Z,4.02
2023-02-14T10:11:35.570Z,4.03
2023-02-14T10:14:24.581Z,4.05
2023-02-14T10:17:05.302Z,4.10
2023-02-14T10:19:56.574Z,4.16
2023-02-14T10:22:44.741Z,4.21
2023-02-14T10:25:22.935Z,4.26
2023-02-14T10:27:59.938Z,4.28
2023-02-14T10:30:40.250Z,4.32
2023-02-14T10:33:11.480Z,4.39
2023-02-14T10:35:50.022Z,4.50
2023-02-14T10:38:37.153Z,4.59
2023-02-14T10:41:24.104Z,4.65
2023-02-14T10:43:58.466Z,4.71
2023-02-14T10:46:53.406Z,4.75
2023-02-14T10:49:51.144Z,4.80
2023-02-14T10:52:44.367Z,4.83
2023-02-14T10:55:32.658Z,4.83
2023-02-14T10:58:05.716Z,4.85
2023-02-14T11:00:39.299Z,4.89
2023-02-14T11:03:11.076Z,4.90
2023-02-14T11:05:52.906Z,4.88
2023-02-14T11:08:25.617Z,4.97
2023-02-14T11:11:19.715Z,5.21
2023-02-14T11:13:48.856Z,5.48
2023-02-14T11:16:34.345Z,5.65
2023-02-14T11:19:36.925Z,5.88
2023-02-14T11:22:06.221Z,6.08
2023-02-14T11:24:37.425Z,6.23
2023-02-14T11:27:21.792Z,6.32
2023-02-14T11:29:53.133Z,6.40
2023-02-14T11:32:28.636Z,6.51
2023-02-14T11:35:07.364Z,6.63
2023-02-14T11:37:44.306Z,6.81
2023-02-14T11:40:35.086Z,6.84
2023-02-14T11:43:14.766Z,6.99
2023-02-14T11:45:45.296Z,7.15
2023-02-14T11:48:36.638Z,7.30
2023-02-14T11:51:42.003Z,7.53
2023-02-14T11:54:26.272Z,7.75
2023-02-14T11:57:01.527Z,7.88
2023-02-14T11:59:34.991Z,8.01
2023-02-14T12:02:21.239Z,8.02
2023-02-14T12:04:52.998Z,7.90
2023-02-14T12:07:28.755Z,7.86
2023-02-14T12:10:18.254Z,7.91
2023-02-14T12:12:49.531Z,8.03
2023-02-14T12:15:27.039Z,8.09
2023-02-14T12:18:25.578Z,8.15
2023-02-14T12:21:18.467Z,8.29
2023-02-14T12:24:14.651Z,8.43
2023-02-14T12:26:57.292Z,8.51
2023-02-14T12:29:33.368Z,8.56
2023-02-14T12:32:20.761Z,8.65
2023-02-14T12:34:50.930Z,8.58
2023-02-14T12:38:03.951Z,8.40
2023-02-14T12:41:06.169Z,8.16
2023-02-14T12:43:43.315Z,8.01
2023-02-14T12:49:37.744Z,7.59
2023-02-14T12:52:41.259Z,7.27
2023-02-14T12:55:18.769Z,7.03
2023-02-14T12:58:02.515Z,6.85
2023-02-14T13:01:21.714Z,6.64
2023-02-14T13:04:29.824Z,6.44
2023-02-14T13:07:38.418Z,6.34
2023-02-14T13:10:18.279Z,6.27
2023-02-14T13:12:58.897Z,6.17
2023-02-14T13:15:55.834Z,6.02
2023-02-14T13:18:51.046Z,5.85
2023-02-14T13:21:25.078Z,5.66
2023-02-14T13:24:06.797Z,5.52
2023-02-14T13:26:41.917Z,5.38
2023-02-14T13:29:23.966Z,5.26
2023-02-14T13:31:57.839Z,5.16
2023-02-14T13:34:39.546Z,5.07
2023-02-14T13:37:13.074Z,5.00
2023-02-14T13:39:46.169Z,4.95
2023-02-14T13:42:47.178Z,4.89
2023-02-14T13:45:37.793Z,4.83
2023-02-14T13:48:09.805Z,4.79
2023-02-14T13:50:53.187Z,4.73
2023-02-14T13:53:43.213Z,4.68
2023-02-14T13:56:17.554Z,4.63
2023-02-14T13:58:55.906Z,4.60
2023-02-14T14:01:34.966Z,4.58
2023-02-14T14:04:31.949Z,4.56
2023-02-14T14:07:03.094Z,4.54
2023-02-14T14:09:45.613Z,4.51
2023-02-14T14:12:29.190Z,4.48
2023-02-14T14:15:06.575Z,4.47
2023-02-14T14:17:50.246Z,4.45
2023-02-14T14:20:21.454Z,4.45
2023-02-14T14:23:02.486Z,4.44
2023-02-14T14:25:41.818Z,4.43
2023-02-14T14:28:25.198Z,4.39
2023-02-14T14:30:54.354Z,4.35
2023-02-14T14:33:28.860Z,4.29
2023-02-14T14:36:08.981Z,4.25
2023-02-14T14:38:53.827Z,4.21
2023-02-14T14:41:31.859Z,4.19
2023-02-14T14:44:00.425Z,4.17
2023-02-14T14:46:28.695Z,4.15
2023-02-14T14:49:05.515Z,4.13
2023-02-14T14:51:35.874Z,4.11
2023-02-14T14:54:04.881Z,4.10
2023-02-14T14:56:38.054Z,4.09
2023-02-14T14:59:18.657Z,4.08
2023-02-14T15:01:47.249Z,4.06
2023-02-14T15:04:36.119Z,4.04
2023-02-14T15:07:33.243Z,4.04
2023-02-14T15:10:02.586Z,4.02
2023-02-14T15:12:49.315Z,3.99
2023-02-14T15:15:19.115Z,3.96
2023-02-14T15:17:48.472Z,3.93
2023-02-14T15:20:24.565Z,3.90
2023-02-14T15:22:54.085Z,3.87
2023-02-14T15:25:29.796Z,3.83
2023-02-14T15:27:58.025Z,3.79
2023-02-14T15:30:30.957Z,3.76
2023-02-14T15:33:02.820Z,3.73
2023-02-14T15:35:45.043Z,3.70
2023-02-14T15:38:14.668Z,3.66
2023-02-14T15:40:43.951Z,3.65
2023-02-14T15:43:18.082Z,3.63
2023-02-14T15:45:52.787Z,3.60
2023-02-14T15:48:29.567Z,3.59
2023-02-14T15:51:00.122Z,3.57
2023-02-14T15:54:07.268Z,3.56
2023-02-14T15:56:48.991Z,3.54
2023-02-14T15:59:26.040Z,3.52
2023-02-14T16:02:00.493Z,3.50
2023-02-14T16:04:32.743Z,3.47
2023-02-14T16:07:22.033Z,3.42
2023-02-14T16:09:51.903Z,3.43
2023-02-14T16:12:34.765Z,3.39
2023-02-14T16:15:15.135Z,3.36
2023-02-14T16:17:44.179Z,3.33
2023-02-14T16:20:47.056Z,3.30
2023-02-14T16:23:15.302Z,3.27
2023-02-14T16:25:44.337Z,3.25
2023-02-14T16:28:13.559Z,3.23
2023-02-14T16:30:42.899Z,3.21
2023-02-14T16:33:33.999Z,3.19
2023-02-14T16:36:10.035Z,3.18
2023-02-14T16:38:44.085Z,3.16
2023-02-14T16:41:29.726Z,3.12
2023-02-14T16:43:57.952Z,3.08
2023-02-14T16:46:30.398Z,3.03
2023-02-14T16:48:58.787Z,2.98
2023-02-14T16:51:43.732Z,2.92
2023-02-14T16:54:17.356Z,2.85
2023-02-14T16:56:57.965Z,2.79
2023-02-14T16:59:26.271Z,2.73
2023-02-14T17:01:54.929Z,2.68
2023-02-14T17:04:23.173Z,2.62
2023-02-14T17:06:59.590Z,2.57
2023-02-14T17:09:32.815Z,2.52
2023-02-14T17:12:05.940Z,2.47
2023-02-14T17:14:47.594Z,2.42
2023-02-14T17:17:16.378Z,2.39
2023-02-14T17:19:44.739Z,2.36
2023-02-14T17:22:14.823Z,2.34
2023-02-14T17:24:43.428Z,2.33
2023-02-14T17:27:11.572Z,2.33
2023-02-14T17:29:39.884Z,2.34
2023-02-14T17:32:12.460Z,2.36
2023-02-14T17:34:50.215Z,2.38
2023-02-14T17:37:19.108Z,2.41
2023-02-14T17:39:47.673Z,2.43
2023-02-14T17:42:16.204Z,2.44
2023-02-14T17:44:44.884Z,2.46
2023-02-14T17:47:15.007Z,2.48
2023-02-14T17:49:47.284Z,2.51
2023-02-14T17:52:17.255Z,2.52
2023-02-14T17:54:45.776Z,2.53
2023-02-14T17:57:21.354Z,2.54
2023-02-14T17:59:49.511Z,2.54
2023-02-14T18:02:17.763Z,2.54
2023-02-14T18:04:48.462Z,2.55
2023-02-14T18:07:16.806Z,2.55
2023-02-14T18:09:44.960Z,2.56
2023-02-14T18:12:15.037Z,2.55
2023-02-14T18:14:43.727Z,2.54
2023-02-14T18:17:13.694Z,2.56
2023-02-14T18:19:42.068Z,2.55
2023-02-14T18:22:10.283Z,2.55
2023-02-14T18:24:38.474Z,2.55
2023-02-14T18:27:06.884Z,2.54
2023-02-14T18:29:36.099Z,2.54
2023-02-14T18:32:11.030Z,2.54
2023-02-14T18:34:39.320Z,2.54
2023-02-14T18:37:16.184Z,2.54
2023-02-14T18:39:46.992Z,2.54
2023-02-14T18:42:18.619Z,2.55
2023-02-14T18:44:47.105Z,2.55
2023-02-14T18:47:15.356Z,2.56
2023-02-14T18:49:43.772Z,2.56
2023-02-14T18:52:12.147Z,2.55
2023-02-14T18:54:40.513Z,2.56
2023-02-14T18:57:08.986Z,2.55
2023-02-14T18:59:37.558Z,2.56
2023-02-14T19:02:06.503Z,2.57
2023-02-14T19:04:35.513Z,2.57
2023-02-14T19:07:04.581Z,2.56
2023-02-14T19:09:40.307Z,2.56
2023-02-14T19:12:09.971Z,2.55
2023-02-14T19:14:38.252Z,2.55
2023-02-14T19:17:06.408Z,2.54
2023-02-14T19:19:34.901Z,2.54
2023-02-14T19:22:03.255Z,2.54
2023-02-14T19:24:31.459Z,2.55
2023-02-14T19:26:59.817Z,2.55
2023-02-14T19:29:31.275Z,2.55
2023-02-14T19:32:00.111Z,2.56
2023-02-14T19:34:30.556Z,2.55
2023-02-14T19:37:08.418Z,2.55
2023-02-14T19:39:39.107Z,2.55
2023-02-14T19:42:07.364Z,2.53
2023-02-14T19:44:35.972Z,2.53
2023-02-14T19:47:19.230Z,2.53
2023-02-14T19:49:55.712Z,2.52
2023-02-14T19:52:26.570Z,2.50
2023-02-14T19:54:58.139Z,2.49
2023-02-14T19:57:26.514Z,2.47
2023-02-14T20:00:08.793Z,2.45
2023-02-14T20:02:45.857Z,2.45
2023-02-14T20:05:16.515Z,2.44
2023-02-14T20:07:44.820Z,2.41
2023-02-14T20:10:13.865Z,2.40
2023-02-14T20:12:42.147Z,2.39
2023-02-14T20:15:11.052Z,2.37
2023-02-14T20:17:39.783Z,2.35
2023-02-14T20:20:21.622Z,2.35
2023-02-14T20:22:50.406Z,2.33
2023-02-14T20:25:18.737Z,2.31
2023-02-14T20:27:47.024Z,2.29
2023-02-14T20:30:20.752Z,2.26
2023-02-14T20:32:55.293Z,2.23
2023-02-14T20:35:26.697Z,2.20
2023-02-14T20:37:55.113Z,2.17
2023-02-14T20:40:23.732Z,2.15
2023-02-14T20:42:52.205Z,2.12
2023-02-14T20:45:20.568Z,2.09
2023-02-14T20:47:49.135Z,2.07
2023-02-14T20:50:17.432Z,2.04
2023-02-14T20:52:46.248Z,2.02
2023-02-14T20:55:14.430Z,1.99
2023-02-14T20:57:42.636Z,1.95
2023-02-14T21:00:11.269Z,1.91
2023-02-14T21:02:39.819Z,1.88
2023-02-14T21:05:08.480Z,1.84
2023-02-14T21:07:36.769Z,1.80
2023-02-14T21:10:05.900Z,1.77
2023-02-14T21:12:34.276Z,1.74
2023-02-14T21:15:02.495Z,1.72
2023-02-14T21:17:30.659Z,1.70
2023-02-14T21:19:58.970Z,1.67
2023-02-14T21:22:27.347Z,1.66
2023-02-14T21:24:55.487Z,1.66
2023-02-14T21:27:32.495Z,1.66
2023-02-14T21:30:00.723Z,1.68
2023-02-14T21:32:29.403Z,1.69
2023-02-14T21:34:57.597Z,1.69
2023-02-14T21:37:27.058Z,1.68
2023-02-14T21:40:01.460Z,1.69
2023-02-14T21:42:29.872Z,1.69
2023-02-14T21:45:16.559Z,1.70
2023-02-14T21:48:07.245Z,1.70
2023-02-14T21:50:38.677Z,1.71
2023-02-14T21:53:07.742Z,1.71
2023-02-14T21:55:35.988Z,1.72
2023-02-14T21:58:04.448Z,1.72
2023-02-14T22:00:32.634Z,1.72
2023-02-14T22:03:01.967Z,1.74
2023-02-14T22:05:30.208Z,1.76
2023-02-14T22:07:58.615Z,1.78
2023-02-14T22:10:26.767Z,1.82
2023-02-14T22:12:55.124Z,1.86
2023-02-14T22:15:23.307Z,1.87
2023-02-14T22:17:51.658Z,1.89
2023-02-14T22:20:20.099Z,1.91
2023-02-14T22:22:48.311Z,1.93
2023-02-14T22:25:16.649Z,1.93
2023-02-14T22:27:45.043Z,1.93
2023-02-14T22:30:13.552Z,1.93
2023-02-14T22:32:42.687Z,1.92
2023-02-14T22:35:10.825Z,1.91
2023-02-14T22:37:39.043Z,1.91
2023-02-14T22:40:08.663Z,1.91
2023-02-14T22:42:36.759Z,1.89
2023-02-14T22:45:05.468Z,1.88
2023-02-14T22:47:33.735Z,1.88
2023-02-14T22:50:01.853Z,1.87
2023-02-14T22:52:29.970Z,1.88
2023-02-14T22:54:58.206Z,1.87
2023-02-14T22:57:26.354Z,1.87
2023-02-14T22:59:54.564Z,1.86
2023-02-14T23:02:22.885Z,1.85
2023-02-14T23:04:51.152Z,1.83
2023-02-14T23:07:19.356Z,1.80
2023-02-14T23:09:50.292Z,1.79
2023-02-14T23:12:36.989Z,1.78
2023-02-14T23:15:34.544Z,1.77
2023-02-14T23:18:21.480Z,1.78
2023-02-14T23:21:11.109Z,1.77
2023-02-14T23:23:39.497Z,1.77
2023-02-14T23:26:07.759Z,1.75
2023-02-14T23:28:35.957Z,1.75
2023-02-14T23:31:04.313Z,1.74
2023-02-14T23:33:32.730Z,1.73
2023-02-14T23:36:04.123Z,1.73
2023-02-14T23:38:32.370Z,1.72
2023-02-14T23:41:27.637Z,1.70
2023-02-14T23:43:55.810Z,1.69
2023-02-14T23:46:24.036Z,1.67
2023-02-14T23:48:52.248Z,1.66
2023-02-14T23:51:20.528Z,1.64
2023-02-14T23:53:49.009Z,1.62
2023-02-14T23:56:17.234Z,1.60
2023-02-14T23:58:45.470Z,1.58
